Terminal Aerodrome Forecast
Issued by NWS

Home | Current Version | Previous Version | Text Only | Print | Product List | Glossary On
Versions: 1 2 3 4 5 6 7 8 9 10 11 12 13 14 15 16 17 18 19 20 21 22
000
FTUS43 KGRB 260500
TAFATW
TAF
KATW 260520Z 2606/2706 28007KT P6SM SKC
     FM262100 16006KT P6SM SCT090 BKN250
     FM270400 14006KT P6SM BKN080=

USA.gov is the U.S. government's official web portal to all federal, state and local government web resources and services.